createdAt,value
2023-03-11T00:01:29.181Z,9
2023-03-11T00:04:29.096Z,9
2023-03-11T00:07:29.134Z,8
2023-03-11T00:10:30.180Z,8
2023-03-11T00:12:29.113Z,9
2023-03-11T00:14:29.134Z,9
2023-03-11T00:17:29.120Z,8
2023-03-11T00:20:29.115Z,8
2023-03-11T00:22:29.124Z,9
2023-03-11T00:25:29.113Z,9
2023-03-11T00:28:29.076Z,10
2023-03-11T00:30:29.142Z,12
2023-03-11T00:34:29.054Z,10
2023-03-11T00:36:29.084Z,9
2023-03-11T00:38:29.124Z,8
2023-03-11T00:41:29.086Z,9
2023-03-11T00:43:29.089Z,12
2023-03-11T00:46:29.134Z,8
2023-03-11T00:49:29.106Z,8
2023-03-11T00:52:29.113Z,9
2023-03-11T00:54:29.109Z,13
2023-03-11T00:56:29.103Z,8
2023-03-11T00:59:29.083Z,10
2023-03-11T01:01:29.076Z,12
2023-03-11T01:04:29.102Z,11
2023-03-11T01:06:39.133Z,8
2023-03-11T01:09:29.095Z,9
2023-03-11T01:12:29.093Z,11
2023-03-11T01:15:29.093Z,9
2023-03-11T01:17:29.111Z,8
2023-03-11T01:22:29.398Z,9
2023-03-11T01:25:29.125Z,10
2023-03-11T01:27:29.123Z,10
2023-03-11T01:30:29.074Z,10
2023-03-11T01:32:29.133Z,9
2023-03-11T01:35:29.117Z,7
2023-03-11T01:37:29.114Z,10
2023-03-11T01:40:29.154Z,12
2023-03-11T01:42:29.113Z,9
2023-03-11T01:45:29.099Z,9
2023-03-11T01:48:29.093Z,9
2023-03-11T01:51:29.055Z,8
2023-03-11T01:53:29.051Z,10
2023-03-11T01:55:29.095Z,9
2023-03-11T01:57:29.098Z,10
2023-03-11T01:59:29.122Z,11
2023-03-11T02:02:29.144Z,9
2023-03-11T02:04:29.172Z,12
2023-03-11T02:07:29.091Z,12
2023-03-11T02:09:29.103Z,11
2023-03-11T02:12:29.105Z,16
2023-03-11T02:15:29.070Z,13
2023-03-11T02:17:29.118Z,10
2023-03-11T02:19:29.121Z,15
2023-03-11T02:22:29.133Z,9
2023-03-11T02:25:29.082Z,10
2023-03-11T02:28:29.098Z,11
2023-03-11T02:30:29.110Z,10
2023-03-11T02:33:29.092Z,8
2023-03-11T02:35:29.082Z,13
2023-03-11T02:38:29.088Z,9
2023-03-11T02:41:29.097Z,12
2023-03-11T02:44:29.099Z,10
2023-03-11T02:47:29.083Z,10
2023-03-11T02:50:29.108Z,12
2023-03-11T02:53:29.089Z,12
2023-03-11T02:56:29.073Z,11
2023-03-11T02:59:29.095Z,11
2023-03-11T03:02:29.097Z,12
2023-03-11T03:05:29.080Z,11
2023-03-11T03:07:29.090Z,11
2023-03-11T03:10:29.106Z,11
2023-03-11T03:13:29.067Z,12
2023-03-11T03:15:29.108Z,16
2023-03-11T03:18:29.146Z,9
2023-03-11T03:21:29.124Z,12
2023-03-11T03:24:29.081Z,10
2023-03-11T03:26:29.094Z,10
2023-03-11T03:29:29.076Z,14
2023-03-11T03:31:29.179Z,13
2023-03-11T03:34:29.106Z,12
2023-03-11T03:37:29.086Z,11
2023-03-11T03:40:29.076Z,10
2023-03-11T03:42:29.096Z,13
2023-03-11T03:45:29.074Z,19
2023-03-11T03:47:29.083Z,12
2023-03-11T03:49:29.095Z,13
2023-03-11T03:52:29.084Z,11
2023-03-11T03:54:29.091Z,11
2023-03-11T03:57:29.108Z,12
2023-03-11T04:00:29.083Z,15
2023-03-11T04:02:29.138Z,15
2023-03-11T04:05:29.082Z,11
2023-03-11T04:08:29.056Z,12
2023-03-11T04:10:29.072Z,11
2023-03-11T04:13:29.083Z,15
2023-03-11T04:16:29.121Z,14
2023-03-11T04:18:29.057Z,14
2023-03-11T04:20:29.076Z,12
2023-03-11T04:22:29.147Z,10
2023-03-11T04:25:29.120Z,17
2023-03-11T04:28:29.104Z,12
2023-03-11T04:31:29.067Z,13
2023-03-11T04:33:29.454Z,12
2023-03-11T04:36:29.099Z,12
2023-03-11T04:38:29.090Z,11
2023-03-11T04:41:29.106Z,15
2023-03-11T04:44:29.069Z,13
2023-03-11T04:46:29.974Z,13
2023-03-11T04:49:29.049Z,13
2023-03-11T04:52:29.110Z,12
2023-03-11T04:54:29.098Z,11
2023-03-11T04:57:29.073Z,21
2023-03-11T05:00:29.072Z,12
2023-03-11T05:02:29.076Z,14
2023-03-11T05:05:29.067Z,13
2023-03-11T05:08:29.099Z,13
2023-03-11T05:11:29.094Z,14
2023-03-11T05:14:29.097Z,14
2023-03-11T05:16:29.068Z,12
2023-03-11T05:19:29.100Z,13
2023-03-11T05:21:29.083Z,16
2023-03-11T05:23:29.068Z,15
2023-03-11T05:25:29.152Z,11
2023-03-11T05:28:29.085Z,14
2023-03-11T05:31:29.190Z,13
2023-03-11T05:34:29.119Z,16
2023-03-11T05:36:29.071Z,12
2023-03-11T05:38:29.082Z,13
2023-03-11T05:41:29.075Z,13
2023-03-11T05:43:29.071Z,13
2023-03-11T05:46:35.958Z,12
2023-03-11T05:49:29.124Z,15
2023-03-11T05:52:29.079Z,13
2023-03-11T05:54:29.111Z,17
2023-03-11T05:57:29.086Z,15
2023-03-11T06:00:29.110Z,14
2023-03-11T06:02:29.086Z,11
2023-03-11T06:05:29.179Z,15
2023-03-11T06:07:29.090Z,11
2023-03-11T06:10:29.113Z,14
2023-03-11T06:13:29.043Z,14
2023-03-11T06:15:29.076Z,15
2023-03-11T06:18:29.059Z,14
2023-03-11T06:21:29.075Z,16
2023-03-11T06:24:29.041Z,14
2023-03-11T06:26:29.069Z,12
2023-03-11T06:29:29.045Z,15
2023-03-11T06:31:29.085Z,15
2023-03-11T06:34:29.041Z,14
2023-03-11T06:36:29.082Z,14
2023-03-11T06:38:29.069Z,14
2023-03-11T06:41:29.078Z,16
2023-03-11T06:44:29.042Z,13
2023-03-11T06:47:29.033Z,15
2023-03-11T06:50:29.074Z,13
2023-03-11T06:53:29.051Z,16
2023-03-11T06:56:29.139Z,15
2023-03-11T06:59:29.051Z,19
2023-03-11T07:02:29.048Z,16
2023-03-11T07:04:29.038Z,13
2023-03-11T07:06:29.080Z,12
2023-03-11T07:08:29.050Z,23
2023-03-11T07:11:29.091Z,13
2023-03-11T07:14:29.072Z,31
2023-03-11T07:16:29.111Z,18
2023-03-11T07:19:29.093Z,19
2023-03-11T07:21:29.076Z,15
2023-03-11T07:23:29.093Z,15
2023-03-11T07:25:29.123Z,15
2023-03-11T07:27:29.153Z,15
2023-03-11T07:30:29.099Z,15
2023-03-11T07:32:29.161Z,17
2023-03-11T07:35:29.039Z,16
2023-03-11T07:38:29.110Z,15
2023-03-11T07:41:29.090Z,13
2023-03-11T07:44:29.058Z,17
2023-03-11T07:47:29.098Z,18
2023-03-11T07:50:29.093Z,15
2023-03-11T07:53:29.088Z,17
2023-03-11T07:56:29.025Z,14
2023-03-11T07:58:29.049Z,17
2023-03-11T08:01:29.072Z,14
2023-03-11T08:04:29.068Z,14
2023-03-11T08:06:29.088Z,13
2023-03-11T08:09:29.121Z,16
2023-03-11T08:11:29.111Z,14
2023-03-11T08:13:29.122Z,15
2023-03-11T08:16:29.088Z,17
2023-03-11T08:18:29.093Z,23
2023-03-11T08:21:29.100Z,25
2023-03-11T08:24:29.097Z,15
2023-03-11T08:26:29.093Z,15
2023-03-11T08:29:29.087Z,17
2023-03-11T08:32:29.110Z,18
2023-03-11T08:34:29.105Z,14
2023-03-11T08:37:29.100Z,25
2023-03-11T08:40:29.051Z,17
2023-03-11T08:42:29.103Z,12
2023-03-11T08:45:29.074Z,13
2023-03-11T08:48:29.045Z,14
2023-03-11T08:50:29.050Z,13
2023-03-11T08:53:29.020Z,14
2023-03-11T08:55:29.027Z,13
2023-03-11T08:58:29.005Z,14
2023-03-11T09:00:29.070Z,16
2023-03-11T09:03:29.026Z,14
2023-03-11T09:06:29.052Z,12
2023-03-11T09:08:29.071Z,13
2023-03-11T09:10:29.076Z,12
2023-03-11T09:12:29.099Z,13
2023-03-11T09:15:29.056Z,12
2023-03-11T09:18:29.063Z,10
2023-03-11T09:21:29.054Z,13
2023-03-11T09:24:29.076Z,12
2023-03-11T09:27:29.036Z,9
2023-03-11T09:29:29.085Z,15
2023-03-11T09:32:29.089Z,18
2023-03-11T09:35:29.059Z,10
2023-03-11T09:37:29.059Z,9
2023-03-11T09:40:29.018Z,12
2023-03-11T09:43:29.042Z,10
2023-03-11T09:45:29.046Z,12
2023-03-11T09:47:29.040Z,10
2023-03-11T09:50:29.055Z,9
2023-03-11T09:52:29.075Z,14
2023-03-11T09:55:29.038Z,9
2023-03-11T09:57:29.149Z,10
2023-03-11T10:00:29.083Z,9
2023-03-11T10:03:29.085Z,10
2023-03-11T10:06:29.024Z,13
2023-03-11T10:08:29.060Z,9
2023-03-11T10:10:29.032Z,11
2023-03-11T10:12:29.043Z,9
2023-03-11T10:15:29.052Z,9
2023-03-11T10:18:29.053Z,9
2023-03-11T10:21:29.108Z,10
2023-03-11T10:24:29.058Z,10
2023-03-11T10:28:29.044Z,10
2023-03-11T10:30:29.081Z,11
2023-03-11T10:33:29.042Z,10
2023-03-11T10:35:29.041Z,10
2023-03-11T10:38:29.007Z,9
2023-03-11T10:40:29.022Z,10
2023-03-11T10:43:29.060Z,9
2023-03-11T10:46:29.033Z,9
2023-03-11T10:48:29.033Z,11
2023-03-11T10:50:29.073Z,10
2023-03-11T10:53:29.097Z,10
2023-03-11T10:56:29.038Z,7
2023-03-11T10:58:29.054Z,12
2023-03-11T11:01:29.133Z,8
2023-03-11T11:04:29.023Z,7
2023-03-11T11:06:29.050Z,8
2023-03-11T11:09:29.035Z,7
2023-03-11T11:12:29.062Z,14
2023-03-11T11:14:29.060Z,9
2023-03-11T11:17:29.024Z,8
2023-03-11T11:19:29.043Z,12
2023-03-11T11:22:29.061Z,8
2023-03-11T11:25:29.104Z,9
2023-03-11T11:28:29.034Z,7
2023-03-11T11:30:29.074Z,9
2023-03-11T11:33:29.125Z,7
2023-03-11T11:36:29.059Z,8
2023-03-11T11:38:29.101Z,7
2023-03-11T11:41:29.133Z,7
2023-03-11T11:44:29.080Z,8
2023-03-11T11:46:29.105Z,13
2023-03-11T11:49:29.096Z,7
2023-03-11T11:52:29.044Z,10
2023-03-11T11:54:29.100Z,11
2023-03-11T11:57:29.077Z,10
2023-03-11T12:00:29.062Z,7
2023-03-11T12:03:29.113Z,8
2023-03-11T12:06:29.026Z,10
2023-03-11T12:08:29.038Z,9
2023-03-11T12:11:29.085Z,9
2023-03-11T12:14:29.056Z,8
2023-03-11T12:16:29.071Z,8
2023-03-11T12:19:29.072Z,7
2023-03-11T12:22:29.043Z,6
2023-03-11T12:24:29.086Z,6
2023-03-11T12:27:29.048Z,7
2023-03-11T12:30:29.096Z,10
2023-03-11T12:32:29.066Z,6
2023-03-11T12:35:29.030Z,9
2023-03-11T12:37:29.056Z,10
2023-03-11T12:40:29.053Z,8
2023-03-11T12:43:29.030Z,9
2023-03-11T12:45:29.075Z,8
2023-03-11T12:48:29.060Z,9
2023-03-11T12:51:29.049Z,7
2023-03-11T12:53:29.036Z,9
2023-03-11T12:55:29.052Z,8
2023-03-11T12:57:29.993Z,9
2023-03-11T13:00:29.062Z,8
2023-03-11T13:03:29.096Z,10
2023-03-11T13:06:29.078Z,9
2023-03-11T13:08:29.085Z,7
2023-03-11T13:11:29.083Z,10
2023-03-11T13:14:29.040Z,9
2023-03-11T13:16:29.183Z,7
2023-03-11T13:19:29.078Z,11
2023-03-11T13:22:29.068Z,7
2023-03-11T13:25:29.043Z,8
2023-03-11T13:27:29.086Z,9
2023-03-11T13:30:29.052Z,9
2023-03-11T13:32:29.069Z,7
2023-03-11T13:34:29.081Z,8
2023-03-11T13:36:29.118Z,8
2023-03-11T13:39:29.078Z,9
2023-03-11T13:42:29.051Z,7
2023-03-11T13:44:29.063Z,8
2023-03-11T13:47:29.115Z,10
2023-03-11T13:50:29.073Z,8
2023-03-11T13:53:29.060Z,7
2023-03-11T13:55:29.146Z,6
2023-03-11T13:57:35.986Z,11
2023-03-11T14:00:29.104Z,7
2023-03-11T14:02:29.116Z,9
2023-03-11T14:05:29.069Z,8
2023-03-11T14:07:29.114Z,8
2023-03-11T14:09:29.138Z,9
2023-03-11T14:12:29.073Z,7
2023-03-11T14:14:29.101Z,10
2023-03-11T14:17:29.105Z,9
2023-03-11T14:20:29.214Z,7
2023-03-11T14:22:29.057Z,10
2023-03-11T14:25:29.066Z,8
2023-03-11T14:28:29.027Z,9
2023-03-11T14:30:29.060Z,10
2023-03-11T14:33:29.040Z,9
2023-03-11T14:36:29.066Z,12
2023-03-11T14:38:29.128Z,11
2023-03-11T14:41:29.057Z,8
2023-03-11T14:43:29.186Z,8
2023-03-11T14:46:29.123Z,7
2023-03-11T14:49:29.040Z,8
2023-03-11T14:51:29.066Z,8
2023-03-11T14:54:29.092Z,9
2023-03-11T14:58:29.041Z,8
2023-03-11T15:00:29.025Z,10
2023-03-11T15:03:29.184Z,8
2023-03-11T15:06:29.090Z,8
2023-03-11T15:09:30.121Z,9
2023-03-11T15:12:29.059Z,8
2023-03-11T15:14:29.048Z,11
2023-03-11T15:17:37.259Z,11
2023-03-11T15:20:29.044Z,10
2023-03-11T15:22:29.085Z,9
2023-03-11T15:25:29.063Z,9
2023-03-11T15:27:29.075Z,12
2023-03-11T15:29:29.177Z,10
2023-03-11T15:33:29.469Z,10
2023-03-11T15:36:29.078Z,7
2023-03-11T15:38:29.114Z,9
2023-03-11T15:41:29.130Z,9
2023-03-11T15:44:29.109Z,10
2023-03-11T15:47:29.090Z,12
2023-03-11T15:50:40.300Z,15
2023-03-11T15:53:29.113Z,15
2023-03-11T15:56:29.097Z,22
2023-03-11T15:59:29.106Z,10
2023-03-11T16:01:29.107Z,8
2023-03-11T16:04:29.146Z,10
2023-03-11T16:06:29.132Z,15
2023-03-11T16:09:29.102Z,11
2023-03-11T16:11:29.121Z,12
2023-03-11T16:14:29.082Z,14
2023-03-11T16:17:36.693Z,12
2023-03-11T16:19:29.070Z,12
2023-03-11T16:21:29.120Z,10
2023-03-11T16:24:29.090Z,10
2023-03-11T16:26:29.079Z,8
2023-03-11T16:28:29.128Z,11
2023-03-11T16:31:29.126Z,8
2023-03-11T16:33:29.111Z,11
2023-03-11T16:36:29.081Z,11
2023-03-11T16:38:29.096Z,13
2023-03-11T16:40:29.122Z,12
2023-03-11T16:43:29.099Z,10
2023-03-11T16:45:29.112Z,13
2023-03-11T16:48:29.108Z,16
2023-03-11T16:51:29.085Z,12
2023-03-11T16:53:29.131Z,13
2023-03-11T16:56:29.109Z,15
2023-03-11T16:59:29.087Z,18
2023-03-11T17:01:29.141Z,17
2023-03-11T17:04:29.213Z,25
2023-03-11T17:07:29.094Z,26
2023-03-11T17:10:29.067Z,23
2023-03-11T17:12:29.136Z,17
2023-03-11T17:15:29.055Z,17
2023-03-11T17:17:29.096Z,12
2023-03-11T17:20:29.154Z,16
2023-03-11T17:23:29.115Z,15
2023-03-11T17:26:29.113Z,17
2023-03-11T17:28:29.248Z,15
2023-03-11T17:31:29.160Z,16
2023-03-11T17:33:29.073Z,17
2023-03-11T17:36:29.127Z,17
2023-03-11T17:39:29.070Z,18
2023-03-11T17:42:29.088Z,20
2023-03-11T17:44:35.382Z,24
2023-03-11T17:47:29.074Z,21
2023-03-11T17:49:29.065Z,21
2023-03-11T17:51:29.216Z,21
2023-03-11T17:54:29.083Z,22
2023-03-11T17:56:29.210Z,27
2023-03-11T17:59:29.061Z,21
2023-03-11T18:02:29.073Z,20
2023-03-11T18:04:29.133Z,17
2023-03-11T18:07:29.109Z,17
2023-03-11T18:09:29.113Z,19
2023-03-11T18:12:29.092Z,17
2023-03-11T18:15:29.085Z,16
2023-03-11T18:17:29.257Z,20
2023-03-11T18:20:29.089Z,19
2023-03-11T18:22:29.109Z,22
2023-03-11T18:25:29.107Z,24
2023-03-11T18:28:29.062Z,19
2023-03-11T18:31:29.152Z,18
2023-03-11T18:33:29.113Z,20
2023-03-11T18:35:29.270Z,18
2023-03-11T18:38:29.068Z,17
2023-03-11T18:40:29.097Z,19
2023-03-11T18:42:29.141Z,19
2023-03-11T18:44:29.126Z,18
2023-03-11T18:47:29.101Z,17
2023-03-11T18:50:29.070Z,21
2023-03-11T18:52:29.102Z,15
2023-03-11T18:55:29.088Z,20
2023-03-11T18:58:29.090Z,20
2023-03-11T19:00:29.097Z,23
2023-03-11T19:03:29.086Z,29
2023-03-11T19:06:29.111Z,28
2023-03-11T19:09:29.112Z,27
2023-03-11T19:12:29.093Z,25
2023-03-11T19:14:29.144Z,22
2023-03-11T19:17:29.116Z,29
2023-03-11T19:20:29.062Z,27
2023-03-11T19:22:29.129Z,28
2023-03-11T19:24:29.088Z,29
2023-03-11T19:26:43.537Z,23
2023-03-11T19:29:29.102Z,24
2023-03-11T19:32:29.116Z,23
2023-03-11T19:34:29.086Z,21
2023-03-11T19:37:29.047Z,21
2023-03-11T19:39:29.076Z,23
2023-03-11T19:42:29.098Z,18
2023-03-11T19:44:29.049Z,19
2023-03-11T19:46:29.180Z,19
2023-03-11T19:49:29.094Z,17
2023-03-11T19:52:29.099Z,19
2023-03-11T19:55:29.197Z,22
2023-03-11T19:58:30.594Z,22
2023-03-11T20:00:29.113Z,18
2023-03-11T20:02:29.175Z,22
2023-03-11T20:05:29.163Z,20
2023-03-11T20:08:29.094Z,22
2023-03-11T20:11:29.112Z,19
2023-03-11T20:14:29.076Z,20
2023-03-11T20:16:29.184Z,19
2023-03-11T20:19:29.112Z,21
2023-03-11T20:21:29.055Z,21
2023-03-11T20:24:29.137Z,21
2023-03-11T20:27:29.110Z,20
2023-03-11T20:29:29.292Z,23
2023-03-11T20:32:29.130Z,22
2023-03-11T20:34:29.108Z,20
2023-03-11T20:36:29.239Z,23
2023-03-11T20:39:29.065Z,23
2023-03-11T20:41:29.088Z,23
2023-03-11T20:44:29.149Z,22
2023-03-11T20:47:29.173Z,20
2023-03-11T20:49:29.071Z,22
2023-03-11T20:51:29.167Z,21
2023-03-11T20:54:29.208Z,22
2023-03-11T20:56:29.141Z,23
2023-03-11T20:59:29.177Z,18
2023-03-11T21:02:29.165Z,26
2023-03-11T21:04:29.177Z,26
2023-03-11T21:07:29.133Z,26
2023-03-11T21:10:29.171Z,26
2023-03-11T21:13:29.085Z,25
2023-03-11T21:15:29.161Z,26
2023-03-11T21:18:29.084Z,22
2023-03-11T21:21:29.183Z,28
2023-03-11T21:24:29.047Z,24
2023-03-11T21:27:29.168Z,23
2023-03-11T21:30:29.111Z,27
2023-03-11T21:33:29.262Z,23
2023-03-11T21:36:29.246Z,25
2023-03-11T21:38:29.145Z,25
2023-03-11T21:41:29.247Z,31
2023-03-11T21:43:29.277Z,26
2023-03-11T21:46:29.174Z,24
2023-03-11T21:48:30.106Z,25
2023-03-11T21:50:29.121Z,27
2023-03-11T21:52:29.205Z,31
2023-03-11T21:55:29.268Z,25
2023-03-11T21:58:29.095Z,33
2023-03-11T22:00:29.092Z,29
2023-03-11T22:02:29.252Z,27
2023-03-11T22:05:29.172Z,26
2023-03-11T22:08:35.978Z,26
2023-03-11T22:11:29.171Z,26
2023-03-11T22:13:29.143Z,29
2023-03-11T22:16:29.301Z,26
2023-03-11T22:19:29.225Z,25
2023-03-11T22:22:29.106Z,26
2023-03-11T22:25:29.100Z,31
2023-03-11T22:28:29.081Z,27
2023-03-11T22:30:29.112Z,28
2023-03-11T22:33:29.119Z,23
2023-03-11T22:35:29.110Z,26
2023-03-11T22:38:29.102Z,25
2023-03-11T22:41:29.115Z,24
2023-03-11T22:44:29.074Z,26
2023-03-11T22:47:29.095Z,29
2023-03-11T22:49:29.125Z,25
2023-03-11T22:52:29.065Z,25
2023-03-11T22:54:29.208Z,22
2023-03-11T22:57:29.125Z,27
2023-03-11T23:00:29.065Z,24
2023-03-11T23:02:29.133Z,26
2023-03-11T23:05:29.089Z,28
2023-03-11T23:07:29.095Z,31
2023-03-11T23:09:29.142Z,25
2023-03-11T23:12:29.127Z,28
2023-03-11T23:15:29.095Z,28
2023-03-11T23:17:29.127Z,26
2023-03-11T23:20:29.098Z,23
2023-03-11T23:23:29.107Z,25
2023-03-11T23:25:29.098Z,25
2023-03-11T23:28:29.141Z,25
2023-03-11T23:31:29.118Z,29
2023-03-11T23:33:29.128Z,27
2023-03-11T23:36:29.090Z,28
2023-03-11T23:39:29.070Z,25
2023-03-11T23:41:29.092Z,27
2023-03-11T23:44:29.058Z,29
2023-03-11T23:46:29.119Z,32
2023-03-11T23:48:29.125Z,32
2023-03-11T23:51:29.146Z,26
2023-03-11T23:54:29.085Z,23
2023-03-11T23:57:29.100Z,28
